createdAt,value
2019-06-10T00:00:50.684Z,18.53
2019-06-10T00:01:48.464Z,18.44
2019-06-10T00:02:50.647Z,18.53
2019-06-10T00:03:51.435Z,18.47
2019-06-10T00:04:50.713Z,18.49
2019-06-10T00:05:48.441Z,18.41
2019-06-10T00:06:50.844Z,18.52
2019-06-10T00:07:48.434Z,18.40
2019-06-10T00:08:50.492Z,18.55
2019-06-10T00:09:48.429Z,18.41
2019-06-10T00:10:50.921Z,18.34
2019-06-10T00:11:51.483Z,18.45
2019-06-10T00:12:48.412Z,18.38
2019-06-10T00:13:50.663Z,18.40
2019-06-10T00:14:48.403Z,18.40
2019-06-10T00:15:48.404Z,18.34
2019-06-10T00:16:50.673Z,18.38
2019-06-10T00:17:59.313Z,18.28
2019-06-10T00:18:50.840Z,18.25
2019-06-10T00:19:48.391Z,18.25
2019-06-10T00:20:48.380Z,18.22
2019-06-10T00:21:50.741Z,18.28
2019-06-10T00:22:48.371Z,18.22
2019-06-10T00:23:48.363Z,18.15
2019-06-10T00:24:48.380Z,18.16
2019-06-10T00:25:48.357Z,18.13
2019-06-10T00:26:50.868Z,18.18
2019-06-10T00:27:48.347Z,18.13
2019-06-10T00:28:48.346Z,18.16
2019-06-10T00:29:48.342Z,18.05
2019-06-10T00:30:48.336Z,18.05
2019-06-10T00:31:50.659Z,18.10
2019-06-10T00:32:51.528Z,18.05
2019-06-10T00:33:48.317Z,18.08
2019-06-10T00:34:50.415Z,17.98
2019-06-10T00:35:48.313Z,17.95
2019-06-10T00:36:50.694Z,17.97
2019-06-10T00:37:48.304Z,17.94
2019-06-10T00:38:48.301Z,17.95
2019-06-10T00:39:48.298Z,17.95
2019-06-10T00:40:48.292Z,17.87
2019-06-10T00:41:48.286Z,17.86
2019-06-10T00:42:50.598Z,17.86
2019-06-10T00:43:48.277Z,17.90
2019-06-10T00:44:48.271Z,17.83
2019-06-10T00:45:48.273Z,17.86
2019-06-10T00:46:48.264Z,17.78
2019-06-10T00:47:50.753Z,17.80
2019-06-10T00:48:48.258Z,17.80
2019-06-10T00:49:48.253Z,17.72
2019-06-10T00:50:48.240Z,17.78
2019-06-10T00:51:50.749Z,17.80
2019-06-10T00:52:48.235Z,17.85
2019-06-10T00:53:48.230Z,17.82
2019-06-10T00:54:48.229Z,17.85
2019-06-10T00:55:48.223Z,17.86
2019-06-10T00:56:48.223Z,17.80
2019-06-10T00:57:48.214Z,17.80
2019-06-10T00:58:48.208Z,17.80
2019-06-10T00:59:50.659Z,17.87
2019-06-10T01:00:48.201Z,17.78
2019-06-10T01:01:50.728Z,17.80
2019-06-10T01:02:48.186Z,17.76
2019-06-10T01:03:50.769Z,17.87
2019-06-10T01:04:48.178Z,17.70
2019-06-10T01:05:50.700Z,17.70
2019-06-10T01:06:48.171Z,17.80
2019-06-10T01:07:50.660Z,17.82
2019-06-10T01:08:48.159Z,17.83
2019-06-10T01:09:48.160Z,17.76
2019-06-10T01:10:48.150Z,17.70
2019-06-10T01:11:48.149Z,17.78
2019-06-10T01:12:48.142Z,17.80
2019-06-10T01:13:48.143Z,17.67
2019-06-10T01:14:48.132Z,17.68
2019-06-10T01:15:48.131Z,17.78
2019-06-10T01:16:50.500Z,17.86
2019-06-10T01:17:48.120Z,17.79
2019-06-10T01:18:50.387Z,17.82
2019-06-10T01:19:48.112Z,17.76
2019-06-10T01:20:48.637Z,17.82
2019-06-10T01:21:48.104Z,17.80
2019-06-10T01:22:48.094Z,17.74
2019-06-10T01:23:48.094Z,17.70
2019-06-10T01:24:48.086Z,17.82
2019-06-10T01:25:48.082Z,17.68
2019-06-10T01:26:50.441Z,17.71
2019-06-10T01:27:48.071Z,17.65
2019-06-10T01:28:48.068Z,17.54
2019-06-10T01:29:48.071Z,17.52
2019-06-10T01:30:48.058Z,17.52
2019-06-10T01:31:48.053Z,17.56
2019-06-10T01:32:50.500Z,17.54
2019-06-10T01:33:48.047Z,17.56
2019-06-10T01:34:48.041Z,17.46
2019-06-10T01:35:48.031Z,17.42
2019-06-10T01:36:48.029Z,17.42
2019-06-10T01:37:48.029Z,17.42
2019-06-10T01:38:48.022Z,17.45
2019-06-10T01:39:48.019Z,17.52
2019-06-10T01:40:48.019Z,17.48
2019-06-10T01:41:48.009Z,17.56
2019-06-10T01:42:50.497Z,17.52
2019-06-10T01:43:48.000Z,17.52
2019-06-10T01:44:47.996Z,17.46
2019-06-10T01:45:47.990Z,17.51
2019-06-10T01:46:47.991Z,17.46
2019-06-10T01:47:47.976Z,17.48
2019-06-10T01:48:48.450Z,17.44
2019-06-10T01:49:47.987Z,17.44
2019-06-10T01:50:47.964Z,17.46
2019-06-10T01:51:47.966Z,17.45
2019-06-10T01:52:47.969Z,17.44
2019-06-10T01:53:47.949Z,17.38
2019-06-10T01:54:47.949Z,17.49
2019-06-10T01:55:47.941Z,17.33
2019-06-10T01:56:47.939Z,17.30
2019-06-10T01:57:47.950Z,17.33
2019-06-10T01:58:51.339Z,17.26
2019-06-10T01:59:47.923Z,17.31
2019-06-10T02:00:47.921Z,17.22
2019-06-10T02:01:47.918Z,17.23
2019-06-10T02:02:47.928Z,17.23
2019-06-10T02:03:47.904Z,17.14
2019-06-10T02:04:47.902Z,17.12
2019-06-10T02:05:47.906Z,17.09
2019-06-10T02:06:47.890Z,17.14
2019-06-10T02:07:47.891Z,17.14
2019-06-10T02:08:47.883Z,17.05
2019-06-10T02:09:47.876Z,17.09
2019-06-10T02:10:47.874Z,17.06
2019-06-10T02:11:47.875Z,17.06
2019-06-10T02:12:47.860Z,17.15
2019-06-10T02:13:47.857Z,17.06
2019-06-10T02:14:47.854Z,17.14
2019-06-10T02:15:47.846Z,17.11
2019-06-10T02:16:47.846Z,17.08
2019-06-10T02:17:47.836Z,16.97
2019-06-10T02:18:57.665Z,17.02
2019-06-10T02:19:47.828Z,16.99
2019-06-10T02:20:47.820Z,17.12
2019-06-10T02:21:47.823Z,17.11
2019-06-10T02:22:47.814Z,17.04
2019-06-10T02:23:47.811Z,17.01
2019-06-10T02:24:47.800Z,16.96
2019-06-10T02:25:47.801Z,16.97
2019-06-10T02:26:47.791Z,17.08
2019-06-10T02:27:47.799Z,17.11
2019-06-10T02:28:47.787Z,17.16
2019-06-10T02:29:47.779Z,16.96
2019-06-10T02:30:51.979Z,17.05
2019-06-10T02:31:47.773Z,17.11
2019-06-10T02:32:47.765Z,17.19
2019-06-10T02:33:47.761Z,17.08
2019-06-10T02:35:03.636Z,17.11
2019-06-10T02:35:49.135Z,17.15
2019-06-10T02:36:47.750Z,17.09
2019-06-10T02:37:47.741Z,17.15
2019-06-10T02:38:47.739Z,17.05
2019-06-10T02:39:47.736Z,17.19
2019-06-10T02:40:47.731Z,17.15
2019-06-10T02:41:47.731Z,17.09
2019-06-10T02:42:47.717Z,17.09
2019-06-10T02:43:47.714Z,17.11
2019-06-10T02:44:47.710Z,17.09
2019-06-10T02:45:47.701Z,17.04
2019-06-10T02:46:47.704Z,17.14
2019-06-10T02:47:47.696Z,17.15
2019-06-10T02:48:47.690Z,17.15
2019-06-10T02:49:57.429Z,17.05
2019-06-10T02:50:47.682Z,17.15
2019-06-10T02:51:47.671Z,17.16
2019-06-10T02:52:47.667Z,17.02
2019-06-10T02:53:47.665Z,17.04
2019-06-10T02:54:47.666Z,17.09
2019-06-10T02:55:47.657Z,17.05
2019-06-10T02:56:47.656Z,17.04
2019-06-10T02:57:47.686Z,16.99
2019-06-10T02:58:47.644Z,17.01
2019-06-10T02:59:47.640Z,17.06
2019-06-10T03:00:49.055Z,17.06
2019-06-10T03:01:47.631Z,17.04
2019-06-10T03:02:47.627Z,17.01
2019-06-10T03:03:49.534Z,16.99
2019-06-10T03:04:47.610Z,16.94
2019-06-10T03:05:47.620Z,16.97
2019-06-10T03:06:47.612Z,17.01
2019-06-10T03:07:47.606Z,17.01
2019-06-10T03:08:47.592Z,16.97
2019-06-10T03:09:47.594Z,16.96
2019-06-10T03:10:47.584Z,16.93
2019-06-10T03:11:47.591Z,17.01
2019-06-10T03:12:47.577Z,16.99
2019-06-10T03:13:47.569Z,16.93
2019-06-10T03:14:47.563Z,16.97
2019-06-10T03:15:47.558Z,16.94
2019-06-10T03:16:47.558Z,16.89
2019-06-10T03:17:47.546Z,17.01
2019-06-10T03:18:47.546Z,16.89
2019-06-10T03:19:50.532Z,16.90
2019-06-10T03:20:47.535Z,16.96
2019-06-10T03:21:47.531Z,17.01
2019-06-10T03:22:47.524Z,16.96
2019-06-10T03:23:47.523Z,16.87
2019-06-10T03:24:47.512Z,16.83
2019-06-10T03:25:49.277Z,16.99
2019-06-10T03:26:47.505Z,17.02
2019-06-10T03:27:47.498Z,16.96
2019-06-10T03:28:49.289Z,16.96
2019-06-10T03:29:47.494Z,16.99
2019-06-10T03:30:53.668Z,16.99
2019-06-10T03:31:48.564Z,16.94
2019-06-10T03:32:47.886Z,17.01
2019-06-10T03:33:48.121Z,16.94
2019-06-10T03:34:48.062Z,16.94
2019-06-10T03:35:47.462Z,16.93
2019-06-10T03:36:47.453Z,16.93
2019-06-10T03:37:47.447Z,16.90
2019-06-10T03:38:47.450Z,16.99
2019-06-10T03:39:49.284Z,16.91
2019-06-10T03:40:49.282Z,17.01
2019-06-10T03:41:47.431Z,16.93
2019-06-10T03:42:47.427Z,16.96
2019-06-10T03:43:49.288Z,16.96
2019-06-10T03:44:47.415Z,16.99
2019-06-10T03:45:47.411Z,16.97
2019-06-10T03:46:49.282Z,16.99
2019-06-10T03:47:47.403Z,17.08
2019-06-10T03:48:47.410Z,17.06
2019-06-10T03:49:52.551Z,17.02
2019-06-10T03:50:47.381Z,17.02
2019-06-10T03:51:47.378Z,17.08
2019-06-10T03:52:47.378Z,17.01
2019-06-10T03:53:47.375Z,17.05
2019-06-10T03:54:47.367Z,17.11
2019-06-10T03:55:47.362Z,17.11
2019-06-10T03:56:47.378Z,17.08
2019-06-10T03:57:47.353Z,17.09
2019-06-10T03:58:47.350Z,17.11
2019-06-10T03:59:47.341Z,17.12
2019-06-10T04:00:47.338Z,17.20
2019-06-10T04:01:47.335Z,17.20
2019-06-10T04:02:47.328Z,17.16
2019-06-10T04:03:47.324Z,17.08
2019-06-10T04:04:47.320Z,17.09
2019-06-10T04:05:47.316Z,17.11
2019-06-10T04:06:47.307Z,17.09
2019-06-10T04:07:47.303Z,17.20
2019-06-10T04:08:47.305Z,17.12
2019-06-10T04:09:47.297Z,17.27
2019-06-10T04:10:47.292Z,17.11
2019-06-10T04:11:47.289Z,17.12
2019-06-10T04:12:47.282Z,17.26
2019-06-10T04:13:47.275Z,17.19
2019-06-10T04:14:47.277Z,17.27
2019-06-10T04:15:47.267Z,17.20
2019-06-10T04:16:47.267Z,17.16
2019-06-10T04:17:47.273Z,17.24
2019-06-10T04:18:47.256Z,17.23
2019-06-10T04:19:47.250Z,17.30
2019-06-10T04:20:47.243Z,17.31
2019-06-10T04:21:47.241Z,17.26
2019-06-10T04:22:47.235Z,17.30
2019-06-10T04:23:47.232Z,17.34
2019-06-10T04:24:47.224Z,17.31
2019-06-10T04:25:47.225Z,17.45
2019-06-10T04:26:47.226Z,17.41
2019-06-10T04:27:47.215Z,17.36
2019-06-10T04:28:47.208Z,17.41
2019-06-10T04:29:47.205Z,17.39
2019-06-10T04:30:47.199Z,17.44
2019-06-10T04:31:47.196Z,17.45
2019-06-10T04:32:48.816Z,17.38
2019-06-10T04:33:47.187Z,17.46
2019-06-10T04:34:47.181Z,17.41
2019-06-10T04:35:47.175Z,17.49
2019-06-10T04:36:47.175Z,17.48
2019-06-10T04:37:47.171Z,17.46
2019-06-10T04:38:47.183Z,17.44
2019-06-10T04:39:47.166Z,17.46
2019-06-10T04:40:47.153Z,17.52
2019-06-10T04:41:47.153Z,17.46
2019-06-10T04:42:47.142Z,17.49
2019-06-10T04:43:47.140Z,17.54
2019-06-10T04:44:47.137Z,17.56
2019-06-10T04:45:47.133Z,17.57
2019-06-10T04:46:47.126Z,17.52
2019-06-10T04:47:47.126Z,17.46
2019-06-10T04:48:47.121Z,17.52
2019-06-10T04:49:47.112Z,17.46
2019-06-10T04:50:47.103Z,17.42
2019-06-10T04:51:47.102Z,17.48
2019-06-10T04:52:47.116Z,17.46
2019-06-10T04:53:47.100Z,17.46
2019-06-10T04:54:47.091Z,17.42
2019-06-10T04:55:47.087Z,17.39
2019-06-10T04:56:47.081Z,17.45
2019-06-10T04:57:47.079Z,17.41
2019-06-10T04:58:47.073Z,17.42
2019-06-10T04:59:47.074Z,17.39
2019-06-10T05:00:47.066Z,17.52
2019-06-10T05:01:47.066Z,17.45
2019-06-10T05:02:47.058Z,17.49
2019-06-10T05:03:47.056Z,17.52
2019-06-10T05:04:47.053Z,17.56
2019-06-10T05:05:47.043Z,17.57
2019-06-10T05:06:47.039Z,17.59
2019-06-10T05:07:47.031Z,17.57
2019-06-10T05:08:47.029Z,17.60
2019-06-10T05:09:47.029Z,17.72
2019-06-10T05:10:47.024Z,17.68
2019-06-10T05:11:47.016Z,17.70
2019-06-10T05:12:47.016Z,17.71
2019-06-10T05:13:47.010Z,17.71
2019-06-10T05:14:47.005Z,17.71
2019-06-10T05:15:47.001Z,17.70
2019-06-10T05:16:46.997Z,17.76
2019-06-10T05:17:46.994Z,17.80
2019-06-10T05:18:46.986Z,17.80
2019-06-10T05:19:46.980Z,17.72
2019-06-10T05:20:57.734Z,17.78
2019-06-10T05:21:46.978Z,17.78
2019-06-10T05:22:46.978Z,17.79
2019-06-10T05:23:46.963Z,17.94
2019-06-10T05:24:46.961Z,17.82
2019-06-10T05:25:46.959Z,17.89
2019-06-10T05:26:46.955Z,17.92
2019-06-10T05:27:46.947Z,17.97
2019-06-10T05:28:46.944Z,17.95
2019-06-10T05:29:46.939Z,17.98
2019-06-10T05:30:46.939Z,17.97
2019-06-10T05:31:46.937Z,17.97
2019-06-10T05:32:46.926Z,17.95
2019-06-10T05:33:46.926Z,17.92
2019-06-10T05:34:46.918Z,18.00
2019-06-10T05:35:46.914Z,17.94
2019-06-10T05:36:46.911Z,18.05
2019-06-10T05:37:46.908Z,18.03
2019-06-10T05:38:46.906Z,18.01
2019-06-10T05:39:46.900Z,18.05
2019-06-10T05:40:46.896Z,18.04
2019-06-10T05:41:49.982Z,18.00
2019-06-10T05:42:46.888Z,18.05
2019-06-10T05:43:46.889Z,18.07
2019-06-10T05:44:46.882Z,18.13
2019-06-10T05:45:48.866Z,18.20
2019-06-10T05:46:48.857Z,18.11
2019-06-10T05:47:46.867Z,18.18
2019-06-10T05:48:46.861Z,18.25
2019-06-10T05:49:46.858Z,18.22
2019-06-10T05:50:59.238Z,18.26
2019-06-10T05:51:46.857Z,18.28
2019-06-10T05:52:46.858Z,18.28
2019-06-10T05:53:46.850Z,18.37
2019-06-10T05:54:46.840Z,18.53
2019-06-10T05:55:46.859Z,18.53
2019-06-10T05:56:46.839Z,18.58
2019-06-10T05:57:46.836Z,18.63
2019-06-10T05:58:46.856Z,18.71
2019-06-10T05:59:46.822Z,18.78
2019-06-10T06:00:46.824Z,18.83
2019-06-10T06:01:46.818Z,18.80
2019-06-10T06:02:46.809Z,18.71
2019-06-10T06:03:46.815Z,18.71
2019-06-10T06:04:48.370Z,18.84
2019-06-10T06:05:46.808Z,18.90
2019-06-10T06:06:46.803Z,18.90
2019-06-10T06:08:01.071Z,18.93
2019-06-10T06:08:46.797Z,19.02
2019-06-10T06:09:46.789Z,19.00
2019-06-10T06:10:46.788Z,19.04
2019-06-10T06:11:46.787Z,19.11
2019-06-10T06:12:46.784Z,19.19
2019-06-10T06:13:46.779Z,19.27
2019-06-10T06:14:46.779Z,19.31
2019-06-10T06:15:46.774Z,19.41
2019-06-10T06:16:46.774Z,19.39
2019-06-10T06:17:46.773Z,19.47
2019-06-10T06:18:46.764Z,19.66
2019-06-10T06:19:46.766Z,19.66
2019-06-10T06:20:46.762Z,19.79
2019-06-10T06:21:47.933Z,19.73
2019-06-10T06:22:46.761Z,19.85
2019-06-10T06:23:46.756Z,19.94
2019-06-10T06:24:46.753Z,20.10
2019-06-10T06:25:47.153Z,20.11
2019-06-10T06:26:46.749Z,20.26
2019-06-10T06:27:46.749Z,20.29
2019-06-10T06:28:46.742Z,20.34
2019-06-10T06:29:46.746Z,20.48
2019-06-10T06:30:46.744Z,20.43
2019-06-10T06:31:46.742Z,20.60
2019-06-10T06:32:46.740Z,20.56
2019-06-10T06:33:46.740Z,20.65
2019-06-10T06:34:46.733Z,20.62
2019-06-10T06:35:46.900Z,20.66
2019-06-10T06:36:46.736Z,20.67
2019-06-10T06:37:46.731Z,20.75
2019-06-10T06:38:46.730Z,20.80
2019-06-10T06:39:46.731Z,20.78
2019-06-10T06:40:46.733Z,20.78
2019-06-10T06:41:46.730Z,20.81
2019-06-10T06:42:46.724Z,20.74
2019-06-10T06:43:46.728Z,20.62
2019-06-10T06:44:46.726Z,20.67
2019-06-10T06:45:46.724Z,20.47
2019-06-10T06:46:46.723Z,20.47
2019-06-10T06:47:46.721Z,20.48
2019-06-10T06:48:46.731Z,20.41
2019-06-10T06:49:46.717Z,20.41
2019-06-10T06:51:01.681Z,20.44
2019-06-10T06:51:54.765Z,20.48
2019-06-10T06:53:19.055Z,20.41
2019-06-10T06:53:52.133Z,20.40
2019-06-10T06:54:46.711Z,20.55
2019-06-10T06:55:46.712Z,20.55
2019-06-10T06:56:46.711Z,20.41
2019-06-10T06:57:46.705Z,20.52
2019-06-10T06:58:46.704Z,20.51
2019-06-10T06:59:46.706Z,20.51
2019-06-10T07:01:00.252Z,20.56
2019-06-10T07:01:46.703Z,20.56
2019-06-10T07:02:46.704Z,20.60
2019-06-10T07:03:46.704Z,20.52
2019-06-10T07:04:46.695Z,20.66
2019-06-10T07:05:46.697Z,20.66
2019-06-10T07:06:46.698Z,20.65
2019-06-10T07:07:46.693Z,20.62
2019-06-10T07:09:00.323Z,20.66
2019-06-10T07:09:46.693Z,20.65
2019-06-10T07:10:46.692Z,20.65
2019-06-10T07:11:46.867Z,20.74
2019-06-10T07:12:46.687Z,20.72
2019-06-10T07:13:46.689Z,20.81
2019-06-10T07:14:46.704Z,20.81
2019-06-10T07:15:48.431Z,20.84
2019-06-10T07:16:48.417Z,20.80
2019-06-10T07:17:46.683Z,20.77
2019-06-10T07:18:50.110Z,20.69
2019-06-10T07:19:46.679Z,20.66
2019-06-10T07:20:46.679Z,20.70
2019-06-10T07:22:07.418Z,20.66
2019-06-10T07:22:46.871Z,20.66
2019-06-10T07:23:47.165Z,20.67
2019-06-10T07:24:47.743Z,20.65
2019-06-10T07:25:47.697Z,20.67
2019-06-10T07:26:52.100Z,20.72
2019-06-10T07:27:47.090Z,20.77
2019-06-10T07:28:47.487Z,20.92
2019-06-10T07:29:47.461Z,20.97
2019-06-10T07:30:51.759Z,21.03
2019-06-10T07:31:50.121Z,21.07
2019-06-10T07:32:47.404Z,21.07
2019-06-10T07:33:47.415Z,21.17
2019-06-10T07:34:47.013Z,21.15
2019-06-10T07:35:46.661Z,21.20
2019-06-10T07:36:46.663Z,21.14
2019-06-10T07:37:46.664Z,21.33
2019-06-10T07:38:49.071Z,21.40
2019-06-10T07:39:46.656Z,21.50
2019-06-10T07:40:46.678Z,21.62
2019-06-10T07:41:47.871Z,21.66
2019-06-10T07:42:46.649Z,21.79
2019-06-10T07:43:49.655Z,21.88
2019-06-10T07:44:46.650Z,21.98
2019-06-10T07:45:48.098Z,21.98
2019-06-10T07:46:46.653Z,22.07
2019-06-10T07:47:46.648Z,21.96
2019-06-10T07:48:48.673Z,21.91
2019-06-10T07:49:46.648Z,21.77
2019-06-10T07:50:46.647Z,21.69
2019-06-10T07:51:46.715Z,21.69
2019-06-10T07:52:46.974Z,21.48
2019-06-10T07:53:46.939Z,21.51
2019-06-10T07:54:46.647Z,21.43
2019-06-10T07:55:46.774Z,21.40
2019-06-10T07:56:50.380Z,21.48
2019-06-10T07:57:46.645Z,21.54
2019-06-10T07:58:47.697Z,21.51
2019-06-10T07:59:46.643Z,21.42
2019-06-10T08:00:48.464Z,21.42
2019-06-10T08:01:51.444Z,21.50
2019-06-10T08:02:46.638Z,21.60
2019-06-10T08:03:46.743Z,21.67
2019-06-10T08:04:46.641Z,21.75
2019-06-10T08:05:46.819Z,21.85
2019-06-10T08:06:49.791Z,21.99
2019-06-10T08:07:48.823Z,22.11
2019-06-10T08:08:47.258Z,22.17
2019-06-10T08:09:47.475Z,22.48
2019-06-10T08:10:48.142Z,22.60
2019-06-10T08:11:48.304Z,22.70
2019-06-10T08:12:48.345Z,22.68
2019-06-10T08:13:47.982Z,22.66
2019-06-10T08:14:47.908Z,22.78
2019-06-10T08:15:48.232Z,22.85
2019-06-10T08:16:46.823Z,23.20
2019-06-10T08:17:46.651Z,23.32
2019-06-10T08:19:14.000Z,23.58
2019-06-10T08:19:50.819Z,23.92
2019-06-10T08:20:47.703Z,24.11
2019-06-10T08:21:48.987Z,24.21
2019-06-10T08:22:54.071Z,24.23
2019-06-10T08:23:47.491Z,24.14
2019-06-10T08:24:47.843Z,24.02
2019-06-10T08:25:53.178Z,23.69
2019-06-10T08:26:47.789Z,23.61
2019-06-10T08:27:47.818Z,23.84
2019-06-10T08:28:48.326Z,23.98
2019-06-10T08:29:49.504Z,24.10
2019-06-10T08:30:48.163Z,24.38
2019-06-10T08:31:49.517Z,24.36
2019-06-10T08:32:48.967Z,24.36
2019-06-10T08:33:47.877Z,24.33
2019-06-10T08:34:48.091Z,24.40
2019-06-10T08:35:56.428Z,24.81
2019-06-10T08:36:50.419Z,25.32
2019-06-10T08:37:47.473Z,25.83
2019-06-10T08:38:48.673Z,26.13
2019-06-10T08:39:47.696Z,26.31
2019-06-10T08:40:48.449Z,26.48
2019-06-10T08:41:48.829Z,26.81
2019-06-10T08:42:48.753Z,26.99
2019-06-10T08:43:48.469Z,27.26
2019-06-10T08:44:48.491Z,27.40
2019-06-10T08:45:47.494Z,27.59
2019-06-10T08:46:47.336Z,27.65
2019-06-10T08:47:47.717Z,27.49
2019-06-10T08:48:48.169Z,27.37
2019-06-10T08:49:49.009Z,27.18
2019-06-10T08:50:49.948Z,26.90
2019-06-10T08:51:49.777Z,26.84
2019-06-10T08:53:03.945Z,26.73
2019-06-10T08:53:49.856Z,26.78
2019-06-10T08:54:49.829Z,26.96
2019-06-10T08:55:49.301Z,27.02
2019-06-10T08:56:50.316Z,26.75
2019-06-10T08:57:49.421Z,26.80
2019-06-10T08:58:49.665Z,26.71
2019-06-10T08:59:49.003Z,26.84
2019-06-10T09:00:49.335Z,26.80
2019-06-10T09:01:51.436Z,26.95
2019-06-10T09:02:49.069Z,27.07
2019-06-10T09:03:49.352Z,27.05
2019-06-10T09:04:50.073Z,27.22
2019-06-10T09:05:49.859Z,27.20
2019-06-10T09:06:50.377Z,27.25
2019-06-10T09:07:49.989Z,27.27
2019-06-10T09:08:49.945Z,27.07
2019-06-10T09:09:49.153Z,26.93
2019-06-10T09:10:49.795Z,26.80
2019-06-10T09:11:49.440Z,26.58
2019-06-10T09:12:50.462Z,26.44
2019-06-10T09:13:48.325Z,26.25
2019-06-10T09:14:48.762Z,26.18
2019-06-10T09:16:03.708Z,26.13
2019-06-10T09:16:48.914Z,26.09
2019-06-10T09:17:49.587Z,26.38
2019-06-10T09:18:49.307Z,26.26
2019-06-10T09:19:49.176Z,26.26
2019-06-10T09:20:52.407Z,26.25
2019-06-10T09:21:51.085Z,26.25
2019-06-10T09:22:50.175Z,26.37
2019-06-10T09:23:51.519Z,26.29
2019-06-10T09:24:49.407Z,26.33
2019-06-10T09:25:50.473Z,26.26
2019-06-10T09:26:50.144Z,26.25
2019-06-10T09:27:49.604Z,26.29
2019-06-10T09:28:52.370Z,26.28
2019-06-10T09:29:49.769Z,26.38
2019-06-10T09:30:52.550Z,26.56
2019-06-10T09:31:51.296Z,26.68
2019-06-10T09:32:49.927Z,27.05
2019-06-10T09:33:50.753Z,26.95
2019-06-10T09:34:52.199Z,26.77
2019-06-10T09:35:50.350Z,26.80
2019-06-10T09:36:51.793Z,26.93
2019-06-10T09:37:49.997Z,27.11
2019-06-10T09:38:49.036Z,27.22
2019-06-10T09:39:52.477Z,27.35
2019-06-10T09:40:51.546Z,27.44
2019-06-10T09:41:55.377Z,27.27
2019-06-10T09:42:52.062Z,27.26
2019-06-10T09:43:51.627Z,27.36
2019-06-10T09:44:49.200Z,27.59
2019-06-10T09:45:50.393Z,27.80
2019-06-10T09:46:48.872Z,27.95
2019-06-10T09:47:50.577Z,28.00
2019-06-10T09:48:51.206Z,28.12
2019-06-10T09:49:49.176Z,28.29
2019-06-10T09:50:50.808Z,28.42
2019-06-10T09:51:50.091Z,28.54
2019-06-10T09:52:50.436Z,28.72
2019-06-10T09:53:56.321Z,28.78
2019-06-10T09:54:51.609Z,28.86
2019-06-10T09:55:49.723Z,28.93
2019-06-10T09:56:48.816Z,29.01
2019-06-10T09:57:49.726Z,29.08
2019-06-10T09:58:49.336Z,29.23
2019-06-10T09:59:51.364Z,29.31
2019-06-10T10:00:49.370Z,29.35
2019-06-10T10:01:50.994Z,29.51
2019-06-10T10:02:50.273Z,29.51
2019-06-10T10:03:52.089Z,29.32
2019-06-10T10:04:52.894Z,29.44
2019-06-10T10:05:59.302Z,29.35
2019-06-10T10:06:50.195Z,29.36
2019-06-10T10:07:50.782Z,29.26
2019-06-10T10:08:52.439Z,29.16
2019-06-10T10:09:51.389Z,29.07
2019-06-10T10:10:51.090Z,28.86
2019-06-10T10:11:48.875Z,28.75
2019-06-10T10:12:49.037Z,28.59
2019-06-10T10:13:49.455Z,28.22
2019-06-10T10:14:49.829Z,27.87
2019-06-10T10:15:48.137Z,27.87
2019-06-10T10:16:52.271Z,27.93
2019-06-10T10:17:48.306Z,27.90
2019-06-10T10:18:49.423Z,28.20
2019-06-10T10:19:49.670Z,28.44
2019-06-10T10:20:49.771Z,28.60
2019-06-10T10:21:50.209Z,28.62
2019-06-10T10:22:48.851Z,28.59
2019-06-10T10:23:58.316Z,28.67
2019-06-10T10:24:47.620Z,28.89
2019-06-10T10:25:48.224Z,28.85
2019-06-10T10:26:50.856Z,28.45
2019-06-10T10:27:50.700Z,28.08
2019-06-10T10:28:49.882Z,27.77
2019-06-10T10:29:49.982Z,27.65
2019-06-10T10:30:50.306Z,27.68
2019-06-10T10:31:49.460Z,27.82
2019-06-10T10:32:49.482Z,28.12
2019-06-10T10:33:48.404Z,28.15
2019-06-10T10:34:48.707Z,28.32
2019-06-10T10:35:48.032Z,28.12
2019-06-10T10:36:48.726Z,28.17
2019-06-10T10:37:48.511Z,28.22
2019-06-10T10:38:48.783Z,28.19
2019-06-10T10:39:49.042Z,28.47
2019-06-10T10:40:49.302Z,29.07
2019-06-10T10:41:48.684Z,29.22
2019-06-10T10:42:53.049Z,29.31
2019-06-10T10:43:49.341Z,29.69
2019-06-10T10:44:50.949Z,29.66
2019-06-10T10:45:50.333Z,29.51
2019-06-10T10:46:47.576Z,29.27
2019-06-10T10:47:47.471Z,28.78
2019-06-10T10:48:49.108Z,28.39
2019-06-10T10:49:47.489Z,28.52
2019-06-10T10:50:47.538Z,28.81
2019-06-10T10:51:47.497Z,28.57
2019-06-10T10:52:48.614Z,28.49
2019-06-10T10:53:57.296Z,28.72
2019-06-10T10:54:47.933Z,28.79
2019-06-10T10:55:47.532Z,29.13
2019-06-10T10:56:49.244Z,29.49
2019-06-10T10:57:47.548Z,29.65
2019-06-10T10:58:48.938Z,29.56
2019-06-10T10:59:47.814Z,29.41
2019-06-10T11:00:49.899Z,29.07
2019-06-10T11:01:47.602Z,28.88
2019-06-10T11:02:50.605Z,28.91
2019-06-10T11:03:49.545Z,28.91
2019-06-10T11:04:47.940Z,28.86
2019-06-10T11:05:49.841Z,28.96
2019-06-10T11:06:47.797Z,29.13
2019-06-10T11:07:47.760Z,29.08
2019-06-10T11:08:48.311Z,28.94
2019-06-10T11:09:48.541Z,28.76
2019-06-10T11:10:49.463Z,28.82
2019-06-10T11:11:48.852Z,28.76
2019-06-10T11:12:49.005Z,28.45
2019-06-10T11:13:47.651Z,27.98
2019-06-10T11:14:47.691Z,27.44
2019-06-10T11:15:49.009Z,26.99
2019-06-10T11:16:47.669Z,26.90
2019-06-10T11:17:47.688Z,26.85
2019-06-10T11:18:47.681Z,26.78
2019-06-10T11:19:47.730Z,26.77
2019-06-10T11:20:47.694Z,26.74
2019-06-10T11:21:47.701Z,26.90
2019-06-10T11:22:47.710Z,26.93
2019-06-10T11:23:48.095Z,26.89
2019-06-10T11:24:49.173Z,26.95
2019-06-10T11:25:47.818Z,26.92
2019-06-10T11:26:47.873Z,26.74
2019-06-10T11:27:48.485Z,26.60
2019-06-10T11:28:47.734Z,26.83
2019-06-10T11:29:48.160Z,26.95
2019-06-10T11:30:47.745Z,26.92
2019-06-10T11:31:48.452Z,27.02
2019-06-10T11:32:48.003Z,26.88
2019-06-10T11:33:48.718Z,26.78
2019-06-10T11:34:47.831Z,26.77
2019-06-10T11:35:48.776Z,26.97
2019-06-10T11:36:48.036Z,27.02
2019-06-10T11:37:48.884Z,27.33
2019-06-10T11:38:48.595Z,27.52
2019-06-10T11:39:48.153Z,27.58
2019-06-10T11:40:49.198Z,27.60
2019-06-10T11:41:48.142Z,27.27
2019-06-10T11:42:48.345Z,26.99
2019-06-10T11:43:48.349Z,26.63
2019-06-10T11:44:48.381Z,26.52
2019-06-10T11:45:52.656Z,26.36
2019-06-10T11:46:48.611Z,26.45
2019-06-10T11:47:49.374Z,26.70
2019-06-10T11:48:48.940Z,26.81
2019-06-10T11:49:48.983Z,26.83
2019-06-10T11:50:49.149Z,26.77
2019-06-10T11:51:47.845Z,26.60
2019-06-10T11:52:47.851Z,26.71
2019-06-10T11:53:48.397Z,26.92
2019-06-10T11:54:58.228Z,27.12
2019-06-10T11:55:47.855Z,26.88
2019-06-10T11:56:47.861Z,26.71
2019-06-10T11:57:47.963Z,26.74
2019-06-10T11:58:47.946Z,27.18
2019-06-10T11:59:48.054Z,27.39
2019-06-10T12:00:48.692Z,27.48
2019-06-10T12:01:49.206Z,27.48
2019-06-10T12:02:48.221Z,27.68
2019-06-10T12:03:48.466Z,27.87
2019-06-10T12:04:48.365Z,28.15
2019-06-10T12:05:49.070Z,28.23
2019-06-10T12:06:48.654Z,28.01
2019-06-10T12:07:48.854Z,27.82
2019-06-10T12:08:48.936Z,27.89
2019-06-10T12:09:48.957Z,27.83
2019-06-10T12:10:49.035Z,27.92
2019-06-10T12:11:49.099Z,27.98
2019-06-10T12:12:48.925Z,27.93
2019-06-10T12:13:49.096Z,28.14
2019-06-10T12:14:49.296Z,28.23
2019-06-10T12:16:20.940Z,28.37
2019-06-10T12:17:17.750Z,28.56
2019-06-10T12:17:53.552Z,28.45
2019-06-10T12:18:49.028Z,28.22
2019-06-10T12:19:49.742Z,27.93
2019-06-10T12:20:47.957Z,27.71
2019-06-10T12:21:47.965Z,27.63
2019-06-10T12:22:47.974Z,27.64
2019-06-10T12:23:47.972Z,27.33
2019-06-10T12:24:47.976Z,27.05
2019-06-10T12:25:48.137Z,26.95
2019-06-10T12:26:47.988Z,26.81
2019-06-10T12:27:47.996Z,26.73
2019-06-10T12:28:47.998Z,27.05
2019-06-10T12:29:48.010Z,27.63
2019-06-10T12:30:48.007Z,28.10
2019-06-10T12:31:48.012Z,28.60
2019-06-10T12:32:48.019Z,28.89
2019-06-10T12:33:48.027Z,28.96
2019-06-10T12:34:48.031Z,28.93
2019-06-10T12:35:48.050Z,28.63
2019-06-10T12:36:48.039Z,28.52
2019-06-10T12:37:48.040Z,28.49
2019-06-10T12:38:48.112Z,28.37
2019-06-10T12:39:48.050Z,28.23
2019-06-10T12:40:48.541Z,28.10
2019-06-10T12:41:48.064Z,27.89
2019-06-10T12:42:48.057Z,27.74
2019-06-10T12:43:48.070Z,27.55
2019-06-10T12:44:48.504Z,27.54
2019-06-10T12:45:48.078Z,27.54
2019-06-10T12:46:48.078Z,27.48
2019-06-10T12:47:48.095Z,27.54
2019-06-10T12:48:48.087Z,27.73
2019-06-10T12:49:48.091Z,28.00
2019-06-10T12:50:48.097Z,28.33
2019-06-10T12:51:48.097Z,28.69
2019-06-10T12:52:48.105Z,28.78